createdAt,value
2018-06-07T00:00:52.642Z,21.50
2018-06-07T00:01:52.565Z,21.48
2018-06-07T00:02:52.521Z,21.46
2018-06-07T00:03:52.482Z,21.45
2018-06-07T00:04:52.438Z,21.45
2018-06-07T00:05:52.434Z,21.52
2018-06-07T00:06:52.353Z,21.51
2018-06-07T00:07:52.311Z,21.37
2018-06-07T00:08:52.272Z,21.48
2018-06-07T00:09:52.228Z,21.37
2018-06-07T00:10:52.232Z,21.39
2018-06-07T00:11:52.142Z,21.39
2018-06-07T00:12:52.103Z,21.35
2018-06-07T00:13:52.065Z,21.39
2018-06-07T00:14:52.020Z,21.32
2018-06-07T00:15:52.006Z,21.35
2018-06-07T00:16:51.930Z,21.35
2018-06-07T00:17:51.891Z,21.42
2018-06-07T00:18:51.880Z,21.39
2018-06-07T00:19:51.810Z,21.36
2018-06-07T00:20:51.761Z,21.32
2018-06-07T00:21:51.719Z,21.35
2018-06-07T00:22:51.677Z,21.25
2018-06-07T00:23:51.659Z,21.36
2018-06-07T00:24:51.625Z,21.32
2018-06-07T00:25:51.551Z,21.24
2018-06-07T00:26:51.511Z,21.29
2018-06-07T00:27:51.465Z,21.32
2018-06-07T00:28:51.424Z,21.27
2018-06-07T00:29:51.414Z,21.27
2018-06-07T00:30:51.339Z,21.35
2018-06-07T00:31:51.297Z,21.25
2018-06-07T00:32:51.287Z,21.24
2018-06-07T00:33:51.212Z,21.25
2018-06-07T00:34:51.208Z,21.25
2018-06-07T00:35:51.138Z,21.24
2018-06-07T00:36:51.082Z,21.29
2018-06-07T00:37:51.042Z,21.29
2018-06-07T00:38:51.000Z,21.32
2018-06-07T00:39:50.991Z,21.29
2018-06-07T00:40:50.915Z,21.40
2018-06-07T00:41:50.870Z,21.37
2018-06-07T00:42:50.829Z,21.40
2018-06-07T00:43:50.789Z,21.37
2018-06-07T00:44:50.776Z,21.36
2018-06-07T00:45:50.703Z,21.37
2018-06-07T00:46:50.659Z,21.35
2018-06-07T00:47:50.619Z,21.39
2018-06-07T00:48:50.574Z,21.40
2018-06-07T00:49:50.562Z,21.39
2018-06-07T00:50:50.490Z,21.37
2018-06-07T00:51:50.487Z,21.42
2018-06-07T00:52:50.405Z,21.35
2018-06-07T00:53:50.361Z,21.40
2018-06-07T00:54:50.318Z,21.35
2018-06-07T00:55:50.278Z,21.37
2018-06-07T00:56:50.268Z,21.35
2018-06-07T00:57:50.192Z,21.36
2018-06-07T00:58:50.165Z,21.30
2018-06-07T00:59:50.138Z,21.39
2018-06-07T01:00:50.066Z,21.36
2018-06-07T01:01:50.020Z,21.35
2018-06-07T01:02:50.025Z,21.36
2018-06-07T01:03:49.937Z,21.37
2018-06-07T01:04:49.895Z,21.35
2018-06-07T01:05:49.850Z,21.36
2018-06-07T01:06:49.807Z,21.33
2018-06-07T01:07:49.796Z,21.39
2018-06-07T01:08:49.724Z,21.36
2018-06-07T01:09:49.687Z,21.37
2018-06-07T01:10:49.637Z,21.36
2018-06-07T01:11:49.601Z,21.35
2018-06-07T01:12:49.593Z,21.36
2018-06-07T01:13:49.507Z,21.37
2018-06-07T01:14:49.509Z,21.39
2018-06-07T01:15:49.424Z,21.51
2018-06-07T01:16:49.381Z,21.35
2018-06-07T01:17:49.341Z,21.37
2018-06-07T01:18:49.298Z,21.37
2018-06-07T01:19:49.277Z,21.36
2018-06-07T01:20:49.210Z,21.37
2018-06-07T01:21:49.170Z,21.35
2018-06-07T01:22:49.162Z,21.30
2018-06-07T01:23:49.082Z,21.40
2018-06-07T01:24:49.075Z,21.36
2018-06-07T01:25:48.997Z,21.43
2018-06-07T01:26:48.992Z,21.43
2018-06-07T01:27:48.915Z,21.36
2018-06-07T01:28:48.868Z,21.33
2018-06-07T01:29:48.828Z,21.29
2018-06-07T01:30:48.785Z,21.30
2018-06-07T01:31:48.774Z,21.22
2018-06-07T01:32:48.700Z,21.29
2018-06-07T01:33:48.659Z,21.29
2018-06-07T01:34:48.616Z,21.22
2018-06-07T01:35:48.624Z,21.15
2018-06-07T01:36:48.528Z,21.14
2018-06-07T01:37:48.493Z,21.22
2018-06-07T01:38:48.445Z,21.20
2018-06-07T01:39:48.401Z,21.18
2018-06-07T01:40:48.394Z,21.18
2018-06-07T01:41:48.317Z,21.12
2018-06-07T01:42:48.276Z,21.02
2018-06-07T01:43:48.269Z,21.05
2018-06-07T01:44:48.186Z,20.95
2018-06-07T01:45:48.178Z,20.90
2018-06-07T01:46:48.102Z,20.81
2018-06-07T01:47:48.059Z,20.74
2018-06-07T01:48:48.017Z,20.74
2018-06-07T01:49:48.008Z,20.56
2018-06-07T01:50:47.933Z,20.55
2018-06-07T01:51:47.920Z,20.37
2018-06-07T01:52:47.848Z,20.31
2018-06-07T01:53:47.806Z,20.26
2018-06-07T01:54:47.761Z,20.26
2018-06-07T01:55:47.721Z,20.24
2018-06-07T01:56:47.709Z,20.09
2018-06-07T01:57:47.638Z,20.16
2018-06-07T01:58:47.590Z,20.07
2018-06-07T01:59:47.548Z,20.03
2018-06-07T02:00:47.504Z,20.03
2018-06-07T02:01:47.494Z,19.99
2018-06-07T02:02:47.426Z,19.94
2018-06-07T02:03:47.379Z,19.94
2018-06-07T02:04:47.337Z,19.82
2018-06-07T02:05:47.292Z,19.71
2018-06-07T02:06:47.293Z,19.76
2018-06-07T02:07:47.211Z,19.70
2018-06-07T02:08:47.165Z,19.73
2018-06-07T02:09:47.124Z,19.66
2018-06-07T02:10:47.081Z,19.59
2018-06-07T02:11:47.077Z,19.63
2018-06-07T02:12:46.993Z,19.54
2018-06-07T02:13:46.951Z,19.52
2018-06-07T02:14:46.907Z,19.58
2018-06-07T02:15:46.864Z,19.47
2018-06-07T02:16:46.854Z,19.52
2018-06-07T02:17:46.817Z,19.48
2018-06-07T02:18:46.744Z,19.44
2018-06-07T02:19:46.692Z,19.36
2018-06-07T02:20:46.684Z,19.29
2018-06-07T02:21:46.613Z,19.26
2018-06-07T02:22:46.565Z,19.26
2018-06-07T02:23:46.523Z,19.09
2018-06-07T02:24:46.520Z,19.09
2018-06-07T02:25:46.437Z,19.02
2018-06-07T02:26:46.393Z,18.92
2018-06-07T02:27:46.351Z,18.90
2018-06-07T02:28:46.305Z,18.80
2018-06-07T02:29:46.299Z,18.80
2018-06-07T02:30:46.253Z,18.74
2018-06-07T02:31:46.179Z,18.70
2018-06-07T02:32:46.139Z,18.65
2018-06-07T02:33:46.091Z,18.62
2018-06-07T02:34:46.048Z,18.59
2018-06-07T02:35:46.045Z,18.65
2018-06-07T02:36:45.962Z,18.56
2018-06-07T02:37:45.917Z,18.60
2018-06-07T02:38:45.876Z,18.59
2018-06-07T02:39:45.834Z,18.60
2018-06-07T02:40:45.821Z,18.45
2018-06-07T02:41:45.777Z,18.50
2018-06-07T02:42:45.701Z,18.44
2018-06-07T02:43:45.657Z,18.49
2018-06-07T02:44:45.615Z,18.50
2018-06-07T02:45:45.580Z,18.38
2018-06-07T02:46:45.564Z,18.38
2018-06-07T02:47:45.487Z,18.40
2018-06-07T02:48:45.475Z,18.44
2018-06-07T02:49:45.399Z,18.34
2018-06-07T02:50:45.364Z,18.28
2018-06-07T02:51:45.314Z,18.34
2018-06-07T02:52:45.301Z,18.31
2018-06-07T02:53:45.224Z,18.22
2018-06-07T02:54:45.181Z,18.20
2018-06-07T02:55:45.141Z,18.23
2018-06-07T02:56:45.094Z,18.16
2018-06-07T02:57:45.092Z,18.07
2018-06-07T02:58:45.009Z,18.08
2018-06-07T02:59:44.964Z,18.08
2018-06-07T03:00:44.918Z,18.04
2018-06-07T03:01:44.875Z,17.98
2018-06-07T03:02:44.862Z,17.83
2018-06-07T03:03:44.790Z,17.89
2018-06-07T03:04:44.742Z,17.86
2018-06-07T03:05:44.735Z,17.89
2018-06-07T03:06:44.658Z,17.79
2018-06-07T03:07:44.613Z,17.76
2018-06-07T03:08:44.571Z,17.78
2018-06-07T03:09:44.528Z,17.67
2018-06-07T03:10:44.514Z,17.74
2018-06-07T03:11:44.439Z,17.72
2018-06-07T03:12:44.398Z,17.74
2018-06-07T03:13:44.353Z,17.79
2018-06-07T03:14:44.340Z,17.79
2018-06-07T03:15:44.264Z,17.78
2018-06-07T03:16:44.258Z,17.76
2018-06-07T03:17:44.174Z,17.85
2018-06-07T03:18:44.133Z,17.85
2018-06-07T03:19:44.089Z,17.92
2018-06-07T03:20:44.044Z,17.90
2018-06-07T03:21:44.040Z,17.97
2018-06-07T03:22:43.956Z,17.97
2018-06-07T03:23:43.915Z,18.01
2018-06-07T03:24:43.869Z,18.01
2018-06-07T03:25:43.824Z,18.03
2018-06-07T03:26:43.818Z,18.04
2018-06-07T03:27:43.777Z,18.03
2018-06-07T03:28:43.694Z,18.03
2018-06-07T03:29:43.650Z,18.01
2018-06-07T03:30:43.609Z,17.90
2018-06-07T03:31:43.564Z,17.80
2018-06-07T03:32:43.557Z,17.72
2018-06-07T03:33:43.477Z,17.57
2018-06-07T03:34:43.430Z,17.45
2018-06-07T03:35:43.387Z,17.39
2018-06-07T03:36:43.349Z,17.38
2018-06-07T03:37:43.332Z,17.48
2018-06-07T03:38:43.255Z,17.42
2018-06-07T03:39:43.245Z,17.36
2018-06-07T03:40:43.166Z,17.36
2018-06-07T03:41:43.127Z,17.38
2018-06-07T03:42:43.112Z,17.38
2018-06-07T03:43:43.067Z,17.38
2018-06-07T03:44:42.991Z,17.41
2018-06-07T03:45:42.947Z,17.41
2018-06-07T03:46:42.905Z,17.38
2018-06-07T03:47:42.861Z,17.27
2018-06-07T03:48:42.849Z,17.42
2018-06-07T03:49:42.769Z,17.42
2018-06-07T03:50:42.727Z,17.31
2018-06-07T03:51:42.681Z,17.38
2018-06-07T03:52:42.689Z,17.41
2018-06-07T03:53:42.625Z,17.33
2018-06-07T03:54:42.550Z,17.39
2018-06-07T03:55:42.539Z,17.41
2018-06-07T03:56:42.465Z,17.29
2018-06-07T03:57:42.420Z,17.29
2018-06-07T03:58:42.372Z,17.31
2018-06-07T03:59:42.332Z,17.24
2018-06-07T04:00:42.320Z,17.30
2018-06-07T04:01:42.239Z,17.24
2018-06-07T04:02:42.198Z,17.29
2018-06-07T04:03:42.152Z,17.38
2018-06-07T04:04:42.105Z,17.45
2018-06-07T04:05:42.094Z,17.38
2018-06-07T04:06:42.017Z,17.38
2018-06-07T04:07:41.973Z,17.38
2018-06-07T04:08:41.931Z,17.42
2018-06-07T04:09:41.919Z,17.36
2018-06-07T04:10:41.841Z,17.42
2018-06-07T04:11:41.797Z,17.31
2018-06-07T04:12:41.751Z,17.45
2018-06-07T04:13:41.708Z,17.45
2018-06-07T04:14:41.696Z,17.45
2018-06-07T04:15:41.620Z,17.42
2018-06-07T04:16:41.575Z,17.38
2018-06-07T04:17:41.533Z,17.38
2018-06-07T04:18:41.527Z,17.38
2018-06-07T04:19:41.441Z,17.39
2018-06-07T04:20:41.401Z,17.30
2018-06-07T04:21:41.352Z,17.33
2018-06-07T04:22:41.315Z,17.27
2018-06-07T04:23:41.289Z,17.15
2018-06-07T04:24:41.218Z,17.19
2018-06-07T04:25:41.177Z,17.19
2018-06-07T04:26:41.134Z,17.12
2018-06-07T04:27:41.087Z,17.01
2018-06-07T04:28:41.078Z,17.08
2018-06-07T04:29:41.034Z,17.05
2018-06-07T04:30:40.957Z,17.08
2018-06-07T04:31:40.915Z,17.09
2018-06-07T04:32:40.865Z,17.20
2018-06-07T04:33:40.852Z,17.14
2018-06-07T04:34:40.814Z,17.15
2018-06-07T04:35:40.733Z,17.20
2018-06-07T04:36:40.706Z,17.26
2018-06-07T04:37:40.645Z,17.29
2018-06-07T04:38:40.599Z,17.36
2018-06-07T04:39:40.589Z,17.42
2018-06-07T04:40:40.512Z,17.38
2018-06-07T04:41:40.467Z,17.42
2018-06-07T04:42:40.424Z,17.57
2018-06-07T04:43:40.377Z,17.52
2018-06-07T04:44:40.366Z,17.63
2018-06-07T04:45:40.288Z,17.60
2018-06-07T04:46:40.248Z,17.64
2018-06-07T04:47:40.202Z,17.64
2018-06-07T04:48:40.194Z,17.72
2018-06-07T04:49:40.112Z,17.76
2018-06-07T04:50:40.071Z,17.74
2018-06-07T04:51:40.073Z,17.87
2018-06-07T04:52:39.978Z,17.80
2018-06-07T04:53:39.936Z,17.90
2018-06-07T04:54:39.896Z,17.92
2018-06-07T04:55:39.848Z,17.95
2018-06-07T04:56:39.853Z,17.94
2018-06-07T04:57:39.760Z,18.04
2018-06-07T04:58:39.719Z,18.03
2018-06-07T04:59:39.676Z,18.01
2018-06-07T05:00:39.629Z,18.05
2018-06-07T05:01:39.628Z,18.05
2018-06-07T05:02:39.540Z,17.98
2018-06-07T05:03:39.494Z,17.95
2018-06-07T05:04:39.453Z,18.01
2018-06-07T05:05:39.407Z,18.00
2018-06-07T05:06:39.489Z,18.15
2018-06-07T05:07:39.320Z,18.25
2018-06-07T05:08:39.273Z,18.20
2018-06-07T05:09:39.233Z,18.20
2018-06-07T05:10:39.185Z,18.20
2018-06-07T05:11:39.175Z,18.33
2018-06-07T05:12:39.098Z,18.35
2018-06-07T05:13:39.058Z,18.34
2018-06-07T05:14:39.044Z,18.37
2018-06-07T05:15:38.967Z,18.40
2018-06-07T05:16:38.938Z,18.40
2018-06-07T05:17:38.878Z,18.43
2018-06-07T05:18:38.835Z,18.49
2018-06-07T05:19:38.832Z,18.55
2018-06-07T05:20:38.747Z,18.62
2018-06-07T05:21:38.708Z,18.62
2018-06-07T05:22:38.659Z,18.68
2018-06-07T05:23:38.614Z,18.65
2018-06-07T05:24:38.601Z,18.74
2018-06-07T05:25:38.528Z,18.89
2018-06-07T05:26:38.484Z,19.00
2018-06-07T05:27:38.473Z,18.99
2018-06-07T05:28:38.395Z,19.14
2018-06-07T05:29:38.352Z,19.27
2018-06-07T05:30:38.307Z,19.31
2018-06-07T05:31:38.263Z,19.30
2018-06-07T05:32:38.256Z,19.36
2018-06-07T05:33:38.177Z,19.47
2018-06-07T05:34:38.131Z,19.49
2018-06-07T05:35:38.092Z,19.51
2018-06-07T05:36:38.045Z,19.54
2018-06-07T05:37:38.034Z,19.63
2018-06-07T05:38:37.960Z,19.63
2018-06-07T05:39:37.916Z,19.73
2018-06-07T05:40:37.871Z,19.79
2018-06-07T05:41:37.826Z,19.77
2018-06-07T05:42:37.817Z,19.88
2018-06-07T05:43:37.773Z,19.91
2018-06-07T05:44:37.697Z,19.94
2018-06-07T05:45:37.656Z,20.06
2018-06-07T05:46:37.610Z,20.09
2018-06-07T05:47:37.606Z,20.13
2018-06-07T05:48:37.520Z,20.24
2018-06-07T05:49:37.481Z,20.25
2018-06-07T05:50:37.434Z,20.26
2018-06-07T05:51:37.454Z,20.28
2018-06-07T05:52:37.387Z,20.36
2018-06-07T05:53:37.321Z,20.34
2018-06-07T05:54:37.260Z,20.48
2018-06-07T05:55:37.221Z,20.48
2018-06-07T05:56:37.180Z,20.48
2018-06-07T05:57:37.216Z,20.60
2018-06-07T05:58:37.130Z,20.65
2018-06-07T05:59:37.084Z,20.60
2018-06-07T06:00:37.003Z,20.67
2018-06-07T06:01:36.963Z,20.72
2018-06-07T06:02:36.916Z,20.78
2018-06-07T06:03:36.904Z,20.82
2018-06-07T06:04:36.830Z,20.85
2018-06-07T06:05:36.953Z,20.87
2018-06-07T06:06:36.745Z,20.92
2018-06-07T06:07:36.703Z,21.00
2018-06-07T06:08:36.659Z,21.05
2018-06-07T06:09:36.653Z,21.02
2018-06-07T06:10:36.608Z,21.07
2018-06-07T06:11:36.529Z,21.11
2018-06-07T06:12:36.488Z,21.17
2018-06-07T06:13:36.466Z,21.14
2018-06-07T06:14:36.400Z,21.24
2018-06-07T06:15:36.357Z,21.33
2018-06-07T06:16:36.316Z,21.33
2018-06-07T06:17:36.309Z,21.33
2018-06-07T06:18:36.227Z,21.36
2018-06-07T06:19:36.185Z,21.36
2018-06-07T06:20:36.141Z,21.37
2018-06-07T06:21:36.131Z,21.36
2018-06-07T06:22:36.061Z,21.40
2018-06-07T06:23:36.016Z,21.39
2018-06-07T06:24:36.009Z,21.37
2018-06-07T06:25:35.930Z,21.45
2018-06-07T06:26:35.887Z,21.43
2018-06-07T06:27:35.847Z,21.39
2018-06-07T06:28:35.843Z,21.45
2018-06-07T06:29:35.761Z,21.39
2018-06-07T06:30:35.714Z,21.51
2018-06-07T06:31:35.673Z,21.51
2018-06-07T06:32:35.632Z,21.58
2018-06-07T06:33:35.620Z,21.58
2018-06-07T06:34:35.548Z,21.62
2018-06-07T06:35:35.504Z,21.61
2018-06-07T06:36:35.492Z,21.62
2018-06-07T06:37:35.418Z,21.62
2018-06-07T06:38:35.381Z,21.67
2018-06-07T06:39:35.368Z,21.70
2018-06-07T06:40:35.293Z,21.77
2018-06-07T06:41:35.249Z,21.76
2018-06-07T06:42:35.212Z,21.83
2018-06-07T06:43:35.164Z,21.77
2018-06-07T06:44:35.165Z,21.95
2018-06-07T06:45:35.082Z,21.98
2018-06-07T06:46:35.036Z,21.98
2018-06-07T06:47:34.997Z,22.06
2018-06-07T06:48:34.955Z,22.00
2018-06-07T06:49:34.960Z,22.10
2018-06-07T06:50:34.871Z,22.26
2018-06-07T06:51:34.827Z,22.20
2018-06-07T06:52:34.787Z,22.33
2018-06-07T06:53:34.742Z,22.32
2018-06-07T06:54:34.733Z,22.33
2018-06-07T06:55:34.709Z,22.26
2018-06-07T06:56:34.615Z,22.43
2018-06-07T06:57:34.576Z,22.53
2018-06-07T06:58:34.529Z,22.51
2018-06-07T06:59:34.491Z,22.54
2018-06-07T07:00:34.478Z,22.53
2018-06-07T07:01:34.403Z,22.57
2018-06-07T07:02:34.364Z,22.57
2018-06-07T07:03:34.325Z,22.57
2018-06-07T07:04:34.286Z,22.63
2018-06-07T07:05:34.271Z,22.66
2018-06-07T07:06:34.232Z,22.63
2018-06-07T07:07:34.168Z,22.63
2018-06-07T07:08:34.116Z,22.76
2018-06-07T07:09:34.073Z,22.73
2018-06-07T07:10:34.067Z,22.80
2018-06-07T07:11:33.991Z,22.76
2018-06-07T07:12:33.948Z,22.85
2018-06-07T07:13:33.939Z,22.81
2018-06-07T07:14:33.871Z,22.81
2018-06-07T07:15:33.867Z,22.90
2018-06-07T07:16:33.783Z,22.98
2018-06-07T07:17:33.779Z,23.09
2018-06-07T07:18:33.713Z,23.08
2018-06-07T07:19:33.697Z,23.10
2018-06-07T07:20:33.622Z,23.15
2018-06-07T07:21:33.612Z,23.20
2018-06-07T07:22:33.566Z,23.21
2018-06-07T07:23:33.496Z,23.18
2018-06-07T07:24:33.452Z,23.13
2018-06-07T07:25:33.414Z,23.15
2018-06-07T07:26:33.404Z,23.18
2018-06-07T07:27:33.338Z,23.12
2018-06-07T07:28:33.297Z,23.10
2018-06-07T07:29:33.248Z,23.25
2018-06-07T07:30:33.210Z,23.36
2018-06-07T07:31:33.200Z,23.43
2018-06-07T07:32:33.169Z,23.48
2018-06-07T07:33:33.086Z,23.43
2018-06-07T07:34:33.097Z,23.54
2018-06-07T07:35:33.008Z,23.61
2018-06-07T07:36:32.961Z,23.68
2018-06-07T07:37:32.962Z,23.71
2018-06-07T07:38:32.880Z,23.80
2018-06-07T07:39:32.839Z,23.83
2018-06-07T07:40:32.801Z,23.86
2018-06-07T07:41:32.760Z,23.92
2018-06-07T07:42:32.759Z,23.93
2018-06-07T07:43:32.684Z,24.03
2018-06-07T07:44:32.634Z,24.03
2018-06-07T07:45:32.595Z,23.91
2018-06-07T07:46:32.556Z,23.88
2018-06-07T07:47:32.554Z,23.91
2018-06-07T07:48:32.475Z,23.87
2018-06-07T07:49:32.432Z,23.99
2018-06-07T07:50:32.395Z,24.01
2018-06-07T07:51:32.354Z,23.99
2018-06-07T07:52:32.344Z,24.21
2018-06-07T07:53:32.289Z,24.29
2018-06-07T07:54:32.234Z,24.36
2018-06-07T07:55:32.192Z,24.36
2018-06-07T07:56:32.186Z,24.54
2018-06-07T07:57:32.116Z,24.58
2018-06-07T07:58:32.076Z,24.69
2018-06-07T07:59:32.031Z,24.74
2018-06-07T08:00:31.998Z,24.66
2018-06-07T08:01:31.984Z,24.74
2018-06-07T08:02:31.916Z,24.69
2018-06-07T08:03:31.902Z,24.80
2018-06-07T08:04:31.828Z,24.91
2018-06-07T08:05:31.844Z,25.01
2018-06-07T08:06:31.749Z,25.01
2018-06-07T08:07:31.709Z,24.93
2018-06-07T08:08:31.704Z,25.06
2018-06-07T08:09:31.633Z,25.01
2018-06-07T08:10:31.592Z,24.99
2018-06-07T08:11:31.566Z,24.99
2018-06-07T08:12:31.511Z,25.01
2018-06-07T08:13:31.505Z,25.07
2018-06-07T08:14:31.445Z,25.16
2018-06-07T08:15:31.399Z,25.07
2018-06-07T08:16:31.350Z,25.14
2018-06-07T08:17:31.318Z,25.25
2018-06-07T08:18:31.315Z,25.32
2018-06-07T08:19:31.237Z,25.38
2018-06-07T08:20:31.194Z,25.51
2018-06-07T08:21:31.153Z,25.50
2018-06-07T08:22:31.112Z,25.70
2018-06-07T08:23:31.113Z,25.87
2018-06-07T08:24:31.066Z,25.95
2018-06-07T08:25:30.999Z,26.07
2018-06-07T08:26:30.955Z,26.16
2018-06-07T08:27:30.919Z,26.26
2018-06-07T08:28:30.877Z,26.43
2018-06-07T08:29:30.892Z,26.58
2018-06-07T08:30:30.799Z,26.71
2018-06-07T08:31:30.761Z,26.95
2018-06-07T08:32:30.723Z,26.92
2018-06-07T08:33:30.682Z,26.78
2018-06-07T08:34:30.677Z,26.75
2018-06-07T08:35:30.642Z,26.70
2018-06-07T08:36:30.569Z,26.48
2018-06-07T08:37:30.527Z,26.58
2018-06-07T08:38:30.491Z,26.48
2018-06-07T08:39:30.461Z,26.44
2018-06-07T08:40:30.446Z,26.58
2018-06-07T08:41:30.408Z,26.58
2018-06-07T08:42:30.335Z,26.75
2018-06-07T08:43:30.299Z,26.89
2018-06-07T08:44:30.281Z,26.90
2018-06-07T08:45:30.221Z,26.90
2018-06-07T08:46:30.227Z,26.75
2018-06-07T08:47:30.142Z,26.88
2018-06-07T08:48:30.103Z,26.74
2018-06-07T08:49:30.067Z,26.66
2018-06-07T08:50:30.031Z,26.36
2018-06-07T08:51:30.027Z,26.40
2018-06-07T08:52:29.952Z,26.66
2018-06-07T08:53:29.919Z,26.81
2018-06-07T08:54:29.881Z,26.71
2018-06-07T08:55:29.870Z,26.59
2018-06-07T08:56:29.797Z,26.71
2018-06-07T08:57:29.790Z,26.97
2018-06-07T08:58:29.720Z,27.00
2018-06-07T08:59:29.697Z,26.90
2018-06-07T09:00:29.701Z,26.92
2018-06-07T09:01:29.608Z,26.90
2018-06-07T09:02:29.614Z,26.84
2018-06-07T09:03:29.532Z,26.74
2018-06-07T09:04:29.490Z,26.78
2018-06-07T09:05:29.453Z,26.78
2018-06-07T09:06:29.411Z,26.78
2018-06-07T09:07:29.416Z,26.96
2018-06-07T09:08:29.336Z,26.92
2018-06-07T09:09:29.299Z,26.71
2018-06-07T09:10:29.264Z,26.59
2018-06-07T09:11:29.222Z,26.43
2018-06-07T09:12:29.217Z,26.66
2018-06-07T09:13:29.145Z,26.80
2018-06-07T09:14:29.106Z,26.83
2018-06-07T09:15:29.068Z,26.55
2018-06-07T09:16:29.029Z,26.58
2018-06-07T09:17:29.027Z,26.18
2018-06-07T09:18:28.955Z,26.19
2018-06-07T09:19:28.939Z,26.25
2018-06-07T09:20:28.909Z,26.41
2018-06-07T09:21:28.873Z,26.38
2018-06-07T09:22:28.802Z,26.16
2018-06-07T09:23:28.764Z,26.07
2018-06-07T09:24:28.765Z,26.07
2018-06-07T09:25:28.685Z,25.72
2018-06-07T09:26:28.682Z,25.48
2018-06-07T09:27:28.611Z,25.62
2018-06-07T09:28:28.572Z,25.81
2018-06-07T09:29:28.531Z,25.91
2018-06-07T09:30:28.527Z,25.98
2018-06-07T09:31:28.456Z,26.07
2018-06-07T09:32:28.420Z,26.18
2018-06-07T09:33:28.414Z,26.47
2018-06-07T09:34:28.379Z,26.60
2018-06-07T09:35:28.338Z,26.37
2018-06-07T09:36:28.263Z,26.43
2018-06-07T09:37:28.229Z,26.43
2018-06-07T09:38:28.193Z,26.71
2018-06-07T09:39:28.186Z,26.81
2018-06-07T09:40:28.110Z,26.80
2018-06-07T09:41:28.163Z,26.74
2018-06-07T09:42:28.034Z,26.63
2018-06-07T09:43:27.998Z,26.74
2018-06-07T09:44:27.993Z,26.71
2018-06-07T09:45:27.952Z,26.83
2018-06-07T09:46:27.885Z,27.00
2018-06-07T09:47:27.884Z,27.32
2018-06-07T09:48:27.805Z,27.64
2018-06-07T09:49:27.766Z,27.98
2018-06-07T09:50:27.730Z,28.04
2018-06-07T09:51:27.694Z,28.20
2018-06-07T09:52:27.686Z,28.07
2018-06-07T09:53:27.656Z,28.00
2018-06-07T09:54:27.576Z,27.87
2018-06-07T09:55:27.542Z,27.74
2018-06-07T09:56:27.503Z,27.80
2018-06-07T09:57:27.464Z,27.52
2018-06-07T09:58:27.515Z,27.60
2018-06-07T09:59:27.421Z,27.33
2018-06-07T10:00:27.354Z,27.29
2018-06-07T10:01:27.315Z,27.51
2018-06-07T10:02:27.274Z,27.74
2018-06-07T10:03:27.239Z,27.93
2018-06-07T10:04:27.250Z,28.12
2018-06-07T10:05:27.164Z,28.20
2018-06-07T10:06:27.127Z,28.25
2018-06-07T10:07:27.089Z,27.78
2018-06-07T10:08:27.050Z,27.92
2018-06-07T10:09:27.045Z,28.07
2018-06-07T10:10:26.981Z,28.07
2018-06-07T10:11:26.939Z,28.15
2018-06-07T10:12:26.899Z,28.23
2018-06-07T10:13:26.861Z,28.27
2018-06-07T10:14:26.864Z,28.15
2018-06-07T10:15:26.830Z,27.64
2018-06-07T10:16:26.751Z,27.35
2018-06-07T10:17:26.712Z,27.21
2018-06-07T10:18:26.673Z,27.14
2018-06-07T10:19:26.669Z,26.83
2018-06-07T10:20:26.600Z,26.75
2018-06-07T10:21:26.566Z,26.99
2018-06-07T10:22:26.527Z,26.99
2018-06-07T10:23:26.537Z,26.97
2018-06-07T10:24:26.449Z,27.17
2018-06-07T10:25:26.411Z,27.18
2018-06-07T10:26:26.380Z,27.32
2018-06-07T10:27:26.337Z,27.39
2018-06-07T10:28:26.331Z,27.37
2018-06-07T10:29:26.294Z,27.29
2018-06-07T10:30:26.232Z,27.25
2018-06-07T10:31:26.187Z,27.30
2018-06-07T10:32:26.147Z,27.32
2018-06-07T10:33:26.109Z,27.15
2018-06-07T10:34:26.117Z,27.02
2018-06-07T10:35:26.036Z,26.96
2018-06-07T10:36:25.998Z,26.93
2018-06-07T10:37:25.960Z,27.15
2018-06-07T10:38:25.923Z,27.21
2018-06-07T10:39:25.925Z,27.42
2018-06-07T10:40:25.847Z,27.47
2018-06-07T10:41:25.809Z,27.58
2018-06-07T10:42:25.773Z,27.78
2018-06-07T10:43:25.735Z,27.95
2018-06-07T10:44:25.734Z,28.02
2018-06-07T10:45:25.666Z,28.26
2018-06-07T10:46:25.630Z,28.70
2018-06-07T10:47:25.621Z,28.94
2018-06-07T10:48:25.546Z,28.93
2018-06-07T10:49:25.548Z,28.72
2018-06-07T10:50:25.472Z,28.44
2018-06-07T10:51:25.470Z,27.95
2018-06-07T10:52:25.397Z,27.70
2018-06-07T10:53:25.359Z,27.30
2018-06-07T10:54:25.322Z,27.27
2018-06-07T10:55:25.286Z,27.33
2018-06-07T10:56:25.300Z,27.40
2018-06-07T10:57:25.213Z,27.47
2018-06-07T10:58:25.174Z,27.51
2018-06-07T10:59:25.134Z,27.33
2018-06-07T11:00:25.099Z,27.39
2018-06-07T11:01:25.095Z,27.40
2018-06-07T11:02:25.025Z,27.51
2018-06-07T11:03:25.021Z,27.80
2018-06-07T11:04:24.972Z,28.07
2018-06-07T11:05:24.913Z,27.83
2018-06-07T11:06:24.908Z,27.60
2018-06-07T11:07:24.840Z,27.25
2018-06-07T11:08:24.830Z,27.11
2018-06-07T11:09:24.798Z,26.93
2018-06-07T11:10:24.724Z,26.81
2018-06-07T11:11:24.735Z,27.10
2018-06-07T11:12:24.650Z,27.55
2018-06-07T11:13:24.613Z,27.71
2018-06-07T11:14:24.579Z,28.07
2018-06-07T11:15:24.540Z,28.47
2018-06-07T11:16:24.531Z,28.91
2018-06-07T11:17:24.467Z,29.04
2018-06-07T11:18:24.426Z,29.19
2018-06-07T11:19:24.419Z,29.07
2018-06-07T11:20:24.350Z,28.66
2018-06-07T11:21:24.349Z,28.39
2018-06-07T11:22:24.275Z,28.45
2018-06-07T11:23:24.271Z,28.56
2018-06-07T11:24:24.202Z,28.85
2018-06-07T11:25:24.161Z,28.84
2018-06-07T11:26:24.166Z,28.64
2018-06-07T11:27:24.091Z,28.23
2018-06-07T11:28:24.054Z,27.96
2018-06-07T11:29:24.013Z,27.63
2018-06-07T11:30:23.981Z,27.58
2018-06-07T11:31:24.053Z,27.18
2018-06-07T11:32:23.904Z,27.10
2018-06-07T11:33:23.865Z,27.21
2018-06-07T11:34:23.828Z,27.30
2018-06-07T11:35:23.791Z,27.32
2018-06-07T11:36:23.787Z,27.42
2018-06-07T11:37:23.716Z,27.47
2018-06-07T11:38:23.681Z,27.60
2018-06-07T11:39:23.643Z,27.55
2018-06-07T11:40:23.608Z,27.59
2018-06-07T11:41:23.605Z,27.35
2018-06-07T11:42:23.534Z,27.48
2018-06-07T11:43:23.492Z,27.65
2018-06-07T11:44:23.497Z,27.93
2018-06-07T11:45:23.424Z,28.12
2018-06-07T11:46:23.434Z,27.87
2018-06-07T11:47:23.348Z,27.60
2018-06-07T11:48:23.303Z,28.00
2018-06-07T11:49:23.272Z,28.20
2018-06-07T11:50:23.232Z,28.25
2018-06-07T11:51:23.230Z,28.05
2018-06-07T11:52:23.162Z,28.38
2018-06-07T11:53:23.120Z,28.60
2018-06-07T11:54:23.081Z,28.63
2018-06-07T11:55:23.082Z,28.63
2018-06-07T11:56:23.005Z,28.59
2018-06-07T11:57:23.012Z,28.57
2018-06-07T11:58:22.934Z,28.69
2018-06-07T11:59:22.897Z,28.76
2018-06-07T12:00:22.857Z,28.97
2018-06-07T12:01:22.821Z,28.98
2018-06-07T12:02:22.820Z,28.49
2018-06-07T12:03:22.749Z,28.30
2018-06-07T12:04:22.711Z,28.35
2018-06-07T12:05:22.672Z,28.45
2018-06-07T12:06:22.640Z,28.59
2018-06-07T12:07:22.632Z,28.94
2018-06-07T12:08:22.564Z,28.78
2018-06-07T12:09:22.530Z,28.72
2018-06-07T12:10:22.489Z,28.85
2018-06-07T12:11:22.487Z,29.16
2018-06-07T12:12:22.417Z,28.74
2018-06-07T12:13:22.379Z,28.29
2018-06-07T12:14:22.345Z,28.11
2018-06-07T12:15:22.339Z,28.19
2018-06-07T12:16:22.301Z,28.14
2018-06-07T12:17:22.229Z,27.98
2018-06-07T12:18:22.195Z,27.92
2018-06-07T12:19:22.191Z,27.80
2018-06-07T12:20:22.121Z,27.58
2018-06-07T12:21:22.082Z,27.67
2018-06-07T12:22:22.048Z,27.96
2018-06-07T12:23:22.015Z,28.29
2018-06-07T12:24:22.004Z,28.45
2018-06-07T12:25:21.973Z,28.78
2018-06-07T12:26:21.904Z,28.79
2018-06-07T12:27:21.867Z,28.86
2018-06-07T12:28:21.825Z,28.33
2018-06-07T12:29:21.826Z,28.02
2018-06-07T12:30:21.750Z,27.92
2018-06-07T12:31:21.713Z,27.74
2018-06-07T12:32:21.676Z,27.47
2018-06-07T12:33:21.671Z,27.49
2018-06-07T12:34:21.601Z,27.65
2018-06-07T12:35:21.567Z,27.63
2018-06-07T12:36:21.557Z,27.83
2018-06-07T12:37:21.501Z,27.95
2018-06-07T12:38:21.498Z,28.08
2018-06-07T12:39:21.417Z,28.26
2018-06-07T12:40:21.455Z,28.37
2018-06-07T12:41:21.379Z,28.32
2018-06-07T12:42:21.308Z,28.47
2018-06-07T12:43:21.269Z,28.69
2018-06-07T12:44:21.273Z,28.32
2018-06-07T12:45:21.250Z,28.00
2018-06-07T12:46:21.166Z,27.90
2018-06-07T12:47:21.125Z,27.64
2018-06-07T12:48:21.081Z,27.27
2018-06-07T12:49:21.078Z,27.22
2018-06-07T12:50:21.012Z,27.17
2018-06-07T12:51:21.003Z,27.08
2018-06-07T12:52:20.939Z,27.00